Portada
METAR-TAF:

METAR-TAF

Aeropuertos :

Bessemer, Alabama, Estados Unidos

latitud: 33-18-45N, longitud: 086-55-35W, altitud: 213 m

Observación

El informe se hizo hace 34 minutos, a las 04:56 UTC
Viento 3 kt del oeste-noroeste
Temperatura 22°C
Humedad 100%
Presión 1016 hPa
Visibilidad: 16.1 km
Escasas nubes a una altura de 4700 ft
lluvia ligera

METAR: KEKY 080456Z AUTO 30003KT 10SM -RA FEW047 22/22 A2999 RMK AO2 SLP002 T02220222

Hora: 00:30 (05:30 UTC)


TAF: falta

Observaciones y pronósticos meteorológicos de más de 4000 aeropuertos (mensajes METAR y TAF).

Los puntos amarillos y rojos representan las estaciones disponibles.

Ponga el ratón en el punto deseado para ver el nombre de la estación.

Haga clic para ver las observaciones y los pronósticos meteorológicos.

Para cambiar el mapa : haga clic en los botones verdes con una cruz de color negro para hacer un zoom, en el botón verde con un guión para alejar o en las flechas verdes para mapas adyacentes.


METAR-TAF: